createdAt,value
2022-10-17T00:05:09.011Z,16.65
2022-10-17T00:15:12.462Z,16.60
2022-10-17T00:25:16.235Z,16.49
2022-10-17T00:35:18.998Z,16.71
2022-10-17T00:45:25.847Z,16.71
2022-10-17T00:55:29.590Z,16.51
2022-10-17T01:05:33.462Z,16.26
2022-10-17T01:15:41.870Z,16.53
2022-10-17T01:25:53.424Z,16.30
2022-10-17T01:36:03.235Z,16.35
2022-10-17T01:46:11.476Z,16.20
2022-10-17T01:56:16.308Z,15.63
2022-10-17T02:06:18.782Z,15.48
2022-10-17T02:16:28.658Z,15.75
2022-10-17T02:26:34.684Z,15.78
2022-10-17T02:36:40.611Z,15.57
2022-10-17T02:46:43.772Z,15.54
2022-10-17T02:56:51.532Z,15.31
2022-10-17T03:06:54.175Z,15.19
2022-10-17T03:16:57.985Z,14.97
2022-10-17T03:27:00.437Z,14.87
2022-10-17T03:37:04.224Z,14.94
2022-10-17T03:47:09.201Z,14.85
2022-10-17T03:57:15.660Z,14.66
2022-10-17T04:07:18.111Z,14.59
2022-10-17T04:17:21.876Z,14.48
2022-10-17T04:27:24.360Z,14.48
2022-10-17T04:37:29.811Z,14.40
2022-10-17T04:47:32.185Z,14.35
2022-10-17T04:57:36.813Z,14.21
2022-10-17T05:07:44.846Z,14.29
2022-10-17T05:17:48.569Z,14.24
2022-10-17T05:27:50.944Z,14.29
2022-10-17T05:37:54.692Z,14.28
2022-10-17T05:47:57.070Z,14.31
2022-10-17T05:58:02.045Z,14.19
2022-10-17T06:08:04.467Z,13.73
2022-10-17T06:18:08.195Z,13.83
2022-10-17T06:28:11.107Z,13.87
2022-10-17T06:38:14.937Z,14.13
2022-10-17T06:48:17.391Z,14.17
2022-10-17T06:58:21.235Z,14.35
2022-10-17T07:08:23.984Z,14.63
2022-10-17T07:18:27.746Z,14.85
2022-10-17T07:28:30.260Z,15.05
2022-10-17T07:38:34.519Z,15.14
2022-10-17T07:48:37.057Z,15.32
2022-10-17T07:58:40.896Z,15.54
2022-10-17T08:08:43.402Z,15.71
2022-10-17T08:18:47.143Z,15.89
2022-10-17T08:28:49.866Z,16.01
2022-10-17T08:38:53.685Z,16.11
2022-10-17T08:48:58.208Z,16.41
2022-10-17T08:59:02.002Z,16.87
2022-10-17T09:09:13.936Z,17.02
2022-10-17T09:19:20.577Z,17.31
2022-10-17T09:29:24.035Z,17.57
2022-10-17T09:39:31.719Z,18.02
2022-10-17T09:49:35.322Z,18.38
2022-10-17T09:59:39.967Z,18.88
2022-10-17T10:09:47.088Z,19.29
2022-10-17T10:19:52.268Z,19.86
2022-10-17T10:29:54.810Z,20.14
2022-10-17T10:39:59.548Z,20.66
2022-10-17T10:50:10.265Z,20.77
2022-10-17T11:00:16.533Z,21.18
2022-10-17T11:10:23.078Z,21.51
2022-10-17T11:20:31.480Z,22.25
2022-10-17T11:30:40.717Z,22.75
2022-10-17T11:40:46.502Z,23.60
2022-10-17T12:01:22.723Z,24.80
2022-10-17T12:11:34.446Z,25.39
2022-10-17T12:21:54.866Z,25.82
2022-10-17T12:32:10.742Z,26.38
2022-10-17T12:42:47.479Z,26.77
2022-10-17T12:52:57.926Z,27.04
2022-10-17T13:03:05.794Z,27.22
2022-10-17T13:13:13.046Z,27.24
2022-10-17T13:23:24.229Z,27.03
2022-10-17T13:33:32.603Z,26.80
2022-10-17T13:43:36.366Z,26.24
2022-10-17T13:53:41.232Z,26.03
2022-10-17T14:03:49.139Z,25.56
2022-10-17T14:13:55.880Z,25.27
2022-10-17T14:24:16.228Z,24.97
2022-10-17T14:34:22.518Z,24.63
2022-10-17T14:44:27.928Z,24.44
2022-10-17T14:54:30.406Z,24.20
2022-10-17T15:04:34.420Z,23.94
2022-10-17T15:14:36.843Z,23.85
2022-10-17T15:24:40.653Z,23.64
2022-10-17T15:34:43.067Z,23.50
2022-10-17T15:44:49.674Z,23.26
2022-10-17T15:54:52.098Z,23.13
2022-10-17T16:04:56.238Z,22.98
2022-10-17T16:14:58.798Z,22.48
2022-10-17T16:25:09.332Z,22.13
2022-10-17T16:35:15.486Z,21.72
2022-10-17T16:45:20.384Z,21.37
2022-10-17T16:55:22.853Z,21.31
2022-10-17T17:05:26.629Z,20.77
2022-10-17T17:15:29.033Z,20.70
2022-10-17T17:25:34.848Z,20.49
2022-10-17T17:35:39.589Z,20.16
2022-10-17T17:45:45.321Z,19.97
2022-10-17T17:55:47.834Z,19.91
2022-10-17T18:05:51.731Z,19.66
2022-10-17T18:15:57.915Z,19.56
2022-10-17T18:26:01.796Z,19.12
2022-10-17T18:36:07.069Z,19.08
2022-10-17T18:46:14.775Z,18.98
2022-10-17T18:56:18.172Z,18.94
2022-10-17T19:06:22.727Z,18.72
2022-10-17T19:16:26.253Z,18.61
2022-10-17T19:26:31.165Z,18.43
2022-10-17T19:36:34.901Z,18.26
2022-10-17T19:46:39.122Z,18.20
2022-10-17T19:56:43.343Z,18.07
2022-10-17T20:06:47.138Z,17.85
2022-10-17T20:16:52.374Z,17.75
2022-10-17T20:26:56.437Z,17.62
2022-10-17T20:36:58.953Z,17.47
2022-10-17T20:47:03.443Z,17.45
2022-10-17T20:57:07.365Z,17.21
2022-10-17T21:07:11.145Z,17.13
2022-10-17T21:17:13.594Z,17.09
2022-10-17T21:27:18.463Z,16.92
2022-10-17T21:37:20.888Z,17.01
2022-10-17T21:47:27.545Z,16.88
2022-10-17T21:57:30.719Z,16.81
2022-10-17T22:07:35.160Z,16.90
2022-10-17T22:17:37.623Z,16.74
2022-10-17T22:27:42.529Z,16.58
2022-10-17T22:37:44.931Z,16.62
2022-10-17T22:47:48.781Z,16.59
2022-10-17T22:57:51.191Z,16.32
2022-10-17T23:07:54.933Z,16.22
2022-10-17T23:17:57.347Z,16.59
2022-10-17T23:28:01.200Z,16.65
2022-10-17T23:38:03.705Z,16.48
2022-10-17T23:48:07.682Z,16.27
2022-10-17T23:58:10.082Z,16.21
